Time;durP1;ratioP1;P1;durP2;ratioP2;P2;SDS_P1;SDS_P2;PMS_P1;PMS_P2;Temp;Humidity;BMP_temperature;BMP_pressure;BME280_temperature;BME280_humidity;BME280_pressure;Samples;Min_cycle;Max_cycle;Signal;HPM_P1;HPM_P2
2023/07/27 00:01:28;;;;;;;3.08;1.92;;;;;;;11.63;66.85;99821.09;31084516;28;96815;-65
2023/07/27 00:16:28;;;;;;;3.33;2.00;;;;;;;11.48;67.58;99827.28;31083153;28;97149;-69
2023/07/27 00:31:28;;;;;;;5.57;2.20;;;;;;;11.40;68.28;99826.53;31082701;28;97542;-66
2023/07/27 00:46:29;;;;;;;3.70;2.40;;;;;;;11.29;68.36;99826.00;31080953;28;108869;-66
2023/07/27 01:01:30;;;;;;;3.17;2.20;;;;;;;11.13;69.15;99826.19;31091594;28;96898;-67
2023/07/27 01:16:37;;;;;;;3.22;2.22;;;;;;;11.01;69.45;99820.47;31100333;28;97283;-65
2023/07/27 01:31:42;;;;;;;3.90;2.23;;;;;;;10.96;70.11;99820.19;31098046;28;96825;-68
2023/07/27 01:46:44;;;;;;;3.83;2.40;;;;;;;10.93;70.11;99812.56;31095479;28;97657;-66
2023/07/27 02:01:45;;;;;;;4.13;2.40;;;;;;;10.81;71.65;99826.34;31096245;28;97076;-65
2023/07/27 02:16:53;;;;;;;3.35;2.35;;;;;;;11.03;71.63;99815.81;31094131;28;97435;-65
2023/07/27 02:31:53;;;;;;;6.67;2.70;;;;;;;11.40;71.79;99822.06;31092983;28;96922;-68
2023/07/27 02:46:54;;;;;;;4.22;3.08;;;;;;;11.72;71.28;99830.66;31089534;28;119395;-65
2023/07/27 03:01:54;;;;;;;3.63;2.40;;;;;;;11.77;71.39;99840.75;31088676;28;112927;-69
2023/07/27 03:16:54;;;;;;;4.47;2.45;;;;;;;11.75;71.67;99846.28;31086262;28;112310;-68
2023/07/27 03:31:54;;;;;;;5.10;2.80;;;;;;;12.05;71.25;99856.13;31085035;28;113663;-69
2023/07/27 03:46:55;;;;;;;6.93;2.22;;;;;;;12.34;71.14;99849.84;31083732;28;105538;-66
2023/07/27 04:01:55;;;;;;;6.78;2.90;;;;;;;12.48;70.62;99848.13;31081893;28;105832;-66
2023/07/27 04:16:55;;;;;;;7.57;2.70;;;;;;;12.56;70.06;99847.19;31082378;28;111959;-67
2023/07/27 04:31:56;;;;;;;4.47;2.33;;;;;;;12.55;70.86;99857.06;31083717;28;102141;-67
2023/07/27 04:46:56;;;;;;;4.53;2.58;;;;;;;12.89;70.62;99855.50;31099747;28;107348;-67
2023/07/27 05:01:56;;;;;;;6.35;2.67;;;;;;;13.47;70.02;99859.81;31084341;28;110856;-73
2023/07/27 05:16:57;;;;;;;6.05;2.28;;;;;;;14.29;68.80;99852.72;31076734;28;97994;-70
2023/07/27 05:31:57;;;;;;;4.90;2.20;;;;;;;15.54;66.51;99870.03;31072504;28;107446;-70
2023/07/27 05:46:57;;;;;;;4.15;2.00;;;;;;;15.95;64.13;99876.13;31070030;28;97482;-76
2023/07/27 06:01:58;;;;;;;4.03;2.08;;;;;;;16.54;62.95;99875.00;31074780;28;97253;-71
2023/07/27 06:16:58;;;;;;;4.50;1.90;;;;;;;17.08;60.35;99871.91;31075954;28;107577;-73
2023/07/27 06:31:58;;;;;;;3.55;2.30;;;;;;;17.50;59.05;99866.72;31074024;28;113597;-72
2023/07/27 06:46:59;;;;;;;4.72;2.17;;;;;;;18.25;57.24;99867.50;31070996;28;98480;-71
2023/07/27 07:01:59;;;;;;;4.25;2.03;;;;;;;18.72;55.55;99869.50;31063599;28;97335;-67
2023/07/27 07:17:00;;;;;;;3.83;1.95;;;;;;;19.40;54.07;99870.84;31064647;28;113572;-77
2023/07/27 07:32:01;;;;;;;;;;;;;;;20.37;52.01;99870.38;31066995;28;97378;-72
2023/07/27 07:47:02;;;;;;;3.72;1.67;;;;;;;21.46;49.49;99871.06;31085378;28;97212;-78
2023/07/27 08:02:03;;;;;;;3.03;1.93;;;;;;;22.15;46.68;99864.31;31084323;28;97023;-71
2023/07/27 08:17:03;;;;;;;3.35;1.70;;;;;;;21.86;45.33;99842.84;31106254;28;96825;-74
2023/07/27 08:32:04;;;;;;;4.32;1.65;;;;;;;23.06;42.79;99827.38;31100504;28;97115;-69
2023/07/27 08:47:04;;;;;;;;;;;;;;;23.94;39.57;99808.78;31103541;28;97181;-75
2023/07/27 09:02:05;;;;;;;3.03;1.52;;;;;;;24.05;38.02;99820.50;31094534;28;98123;-72
2023/07/27 09:17:07;;;;;;;2.35;1.10;;;;;;;24.67;37.65;99800.44;31096719;28;97325;-72
2023/07/27 09:32:09;;;;;;;1.77;1.20;;;;;;;25.62;35.42;99795.28;31097955;28;98990;-71
2023/07/27 09:47:19;;;;;;;3.27;1.10;;;;;;;26.02;33.19;99782.50;31095339;28;97363;-80
2023/07/27 10:02:22;;;;;;;2.10;1.10;;;;;;;27.56;30.91;99763.00;31092497;28;99021;-69
2023/07/27 10:17:41;;;;;;;3.37;1.20;;;;;;;26.34;29.72;99759.34;31090644;28;97633;-72
2023/07/27 10:33:09;;;;;;;2.53;1.20;;;;;;;26.01;30.16;99739.94;31088835;28;97853;-65
2023/07/27 10:48:16;;;;;;;3.07;1.10;;;;;;;25.54;30.43;99724.94;31087087;28;97246;-64
2023/07/27 11:03:17;;;;;;;2.80;1.10;;;;;;;26.01;29.28;99696.28;31085265;28;97436;-68
2023/07/27 11:18:21;;;;;;;2.42;1.20;;;;;;;26.99;28.17;99667.19;31081175;28;97588;-66
2023/07/27 11:33:26;;;;;;;2.40;1.30;;;;;;;28.17;25.79;99648.22;31081685;28;97171;-64
2023/07/27 11:48:28;;;;;;;2.83;1.30;;;;;;;28.00;26.12;99646.06;31079452;28;97538;-66
2023/07/27 12:03:31;;;;;;;2.70;1.30;;;;;;;27.98;26.15;99624.44;31080018;28;97539;-65
2023/07/27 12:18:31;;;;;;;2.87;1.30;;;;;;;26.95;28.08;99609.56;31077442;28;97249;-64
2023/07/27 12:33:31;;;;;;;3.83;1.90;;;;;;;26.66;28.59;99599.53;31077345;28;97331;-71
2023/07/27 12:48:32;;;;;;;3.85;1.33;;;;;;;27.24;28.84;99586.75;31073430;28;97423;-69
2023/07/27 13:03:34;;;;;;;2.67;1.45;;;;;;;27.55;28.48;99571.81;31079924;28;99553;-73
2023/07/27 13:18:34;;;;;;;2.37;1.67;;;;;;;25.05;30.78;99575.84;31073936;28;97232;-67
2023/07/27 13:33:34;;;;;;;3.33;1.60;;;;;;;24.30;32.12;99572.88;31075771;28;103961;-68
2023/07/27 13:48:35;;;;;;;4.03;1.70;;;;;;;24.80;32.19;99558.53;31082096;28;98346;-69
2023/07/27 14:03:35;;;;;;;4.97;1.98;;;;;;;24.71;32.21;99535.69;31074360;28;97437;-65
2023/07/27 14:18:36;;;;;;;3.33;1.75;;;;;;;24.43;31.32;99516.22;30958234;28;97977;-66
2023/07/27 14:33:36;;;;;;;2.45;1.52;;;;;;;24.66;32.31;99515.56;30959864;28;97385;-64
2023/07/27 14:48:39;;;;;;;5.30;1.55;;;;;;;24.12;32.14;99492.63;30953201;28;97147;-66
2023/07/27 15:03:39;;;;;;;2.67;1.47;;;;;;;23.94;32.45;99483.16;30956974;28;97112;-65
2023/07/27 15:18:39;;;;;;;3.88;1.67;;;;;;;23.66;31.79;99481.84;30957978;28;109714;-69
2023/07/27 15:33:40;;;;;;;4.03;1.80;;;;;;;23.43;32.48;99456.06;30959496;28;96915;-66
2023/07/27 15:48:42;;;;;;;5.77;1.80;;;;;;;23.02;33.85;99450.59;31040791;28;97848;-64
2023/07/27 16:03:42;;;;;;;;;;;;;;;23.09;34.08;99440.28;31018957;28;97556;-65
2023/07/27 16:18:42;;;;;;;2.93;1.93;;;;;;;22.80;34.35;99438.91;31040487;28;97144;-65
2023/07/27 16:33:43;;;;;;;3.47;1.90;;;;;;;22.52;35.54;99436.69;31081180;28;97462;-64
2023/07/27 16:48:47;;;;;;;4.63;1.95;;;;;;;22.33;35.58;99422.78;31082535;28;113758;-65
2023/07/27 17:03:47;;;;;;;6.70;1.87;;;;;;;22.31;35.98;99428.47;31094625;28;97147;-68
2023/07/27 17:18:50;;;;;;;2.70;1.60;;;;;;;21.76;36.32;99420.66;31087590;28;97655;-65
2023/07/27 17:33:50;;;;;;;4.00;1.70;;;;;;;21.50;36.07;99422.38;31058597;28;97501;-73
2023/07/27 17:48:51;;;;;;;3.03;1.70;;;;;;;21.22;37.06;99415.41;30966595;28;97168;-72
2023/07/27 18:03:51;;;;;;;3.43;1.60;;;;;;;20.98;37.86;99412.22;31049285;28;111306;-76
2023/07/27 18:18:51;;;;;;;8.60;1.87;;;;;;;20.59;39.62;99419.41;31088555;28;97726;-64
2023/07/27 18:33:52;;;;;;;3.93;1.87;;;;;;;20.26;41.43;99426.66;31090357;28;96761;-65
2023/07/27 18:48:52;;;;;;;4.60;1.87;;;;;;;20.03;42.63;99426.91;31088259;28;96712;-64
2023/07/27 19:03:52;;;;;;;3.03;1.70;;;;;;;19.60;44.35;99435.50;31081682;28;97217;-63
2023/07/27 19:18:53;;;;;;;4.90;2.55;;;;;;;19.23;46.01;99430.66;31085175;28;97065;-66
2023/07/27 19:33:54;;;;;;;5.40;2.30;;;;;;;18.27;50.13;99447.50;31002397;28;96989;-66
2023/07/27 19:48:54;;;;;;;5.70;2.47;;;;;;;17.54;54.24;99431.66;30951951;28;100352;-67
2023/07/27 20:03:54;;;;;;;4.97;2.67;;;;;;;17.34;56.57;99423.13;30959943;28;97038;-64
2023/07/27 20:18:55;;;;;;;5.10;2.88;;;;;;;17.35;58.13;99393.28;30973233;28;116152;-64
2023/07/27 20:33:55;;;;;;;6.95;2.67;;;;;;;17.39;59.54;99374.78;31062027;28;97286;-63
2023/07/27 20:48:55;;;;;;;4.10;2.80;;;;;;;17.22;60.81;99367.44;31093625;28;97523;-67
2023/07/27 21:03:57;;;;;;;5.75;3.05;;;;;;;17.01;62.01;99351.84;31093671;28;97573;-67
2023/07/27 21:18:57;;;;;;;4.33;2.90;;;;;;;16.64;63.32;99352.00;31087252;28;97473;-68
2023/07/27 21:33:57;;;;;;;6.45;3.50;;;;;;;16.37;64.60;99345.13;31089327;28;97628;-68
2023/07/27 21:48:57;;;;;;;6.05;3.33;;;;;;;16.12;66.21;99333.75;31085724;28;96954;-66
2023/07/27 22:03:58;;;;;;;5.32;3.10;;;;;;;16.11;67.10;99319.47;31087572;28;96876;-64
2023/07/27 22:18:58;;;;;;;5.63;3.33;;;;;;;16.05;67.85;99317.72;31086274;28;101382;-64
2023/07/27 22:33:58;;;;;;;4.93;2.80;;;;;;;16.04;67.81;99306.13;31084348;28;114523;-63
2023/07/27 22:48:59;;;;;;;4.05;2.50;;;;;;;15.99;67.90;99299.81;31078095;28;97240;-65
2023/07/27 23:03:59;;;;;;;4.05;1.98;;;;;;;15.92;68.40;99281.09;30966351;28;116051;-64
2023/07/27 23:18:59;;;;;;;3.10;1.70;;;;;;;15.87;68.83;99271.03;30965653;28;97846;-67
2023/07/27 23:34:00;;;;;;;2.83;1.90;;;;;;;15.81;69.02;99253.13;30963338;28;107091;-64
2023/07/27 23:49:00;;;;;;;2.80;1.70;;;;;;;15.81;69.89;99238.91;30982451;28;96721;-64
